sensor_id;sensor_type;location;lat;lon;timestamp;P1;durP1;ratioP1;P2;durP2;ratioP2
32236;SDS011;18726;44.732;10.550;2023-04-29T00:00:10;17.35;;;12.75;;
32236;SDS011;18726;44.732;10.550;2023-04-29T00:03:16;13.13;;;9.90;;
32236;SDS011;18726;44.732;10.550;2023-04-29T00:06:21;18.58;;;10.98;;
32236;SDS011;18726;44.732;10.550;2023-04-29T00:09:25;19.02;;;13.23;;
32236;SDS011;18726;44.732;10.550;2023-04-29T00:12:28;19.00;;;14.00;;
32236;SDS011;18726;44.732;10.550;2023-04-29T00:15:34;17.88;;;12.63;;
32236;SDS011;18726;44.732;10.550;2023-04-29T00:18:39;14.57;;;12.63;;
32236;SDS011;18726;44.732;10.550;2023-04-29T00:21:43;15.85;;;13.27;;
32236;SDS011;18726;44.732;10.550;2023-04-29T00:24:47;19.52;;;13.40;;
32236;SDS011;18726;44.732;10.550;2023-04-29T00:27:50;15.63;;;14.02;;
32236;SDS011;18726;44.732;10.550;2023-04-29T00:30:54;18.42;;;13.30;;
32236;SDS011;18726;44.732;10.550;2023-04-29T00:33:58;14.63;;;12.90;;
32236;SDS011;18726;44.732;10.550;2023-04-29T00:37:02;15.65;;;12.75;;
32236;SDS011;18726;44.732;10.550;2023-04-29T00:40:07;14.55;;;13.00;;
32236;SDS011;18726;44.732;10.550;2023-04-29T00:43:11;21.88;;;12.93;;
32236;SDS011;18726;44.732;10.550;2023-04-29T00:46:15;18.98;;;11.93;;
32236;SDS011;18726;44.732;10.550;2023-04-29T00:49:19;13.98;;;10.65;;
32236;SDS011;18726;44.732;10.550;2023-04-29T00:52:24;14.48;;;11.57;;
32236;SDS011;18726;44.732;10.550;2023-04-29T00:55:29;13.02;;;11.18;;
32236;SDS011;18726;44.732;10.550;2023-04-29T00:58:35;11.25;;;10.20;;
32236;SDS011;18726;44.732;10.550;2023-04-29T01:01:38;11.55;;;9.68;;
32236;SDS011;18726;44.732;10.550;2023-04-29T01:04:42;13.50;;;9.25;;
32236;SDS011;18726;44.732;10.550;2023-04-29T01:14:13;11.57;;;9.73;;
32236;SDS011;18726;44.732;10.550;2023-04-29T01:17:18;10.63;;;9.00;;
32236;SDS011;18726;44.732;10.550;2023-04-29T01:20:31;10.18;;;9.13;;
32236;SDS011;18726;44.732;10.550;2023-04-29T01:23:37;16.67;;;10.05;;
32236;SDS011;18726;44.732;10.550;2023-04-29T01:26:45;13.05;;;9.25;;
32236;SDS011;18726;44.732;10.550;2023-04-29T01:37:27;12.30;;;9.85;;
32236;SDS011;18726;44.732;10.550;2023-04-29T01:40:42;12.75;;;9.63;;
32236;SDS011;18726;44.732;10.550;2023-04-29T01:43:59;15.07;;;8.98;;
32236;SDS011;18726;44.732;10.550;2023-04-29T01:47:06;13.98;;;10.13;;
32236;SDS011;18726;44.732;10.550;2023-04-29T01:50:20;16.40;;;9.38;;
32236;SDS011;18726;44.732;10.550;2023-04-29T01:53:23;19.63;;;9.80;;
32236;SDS011;18726;44.732;10.550;2023-04-29T01:56:28;13.20;;;10.00;;
32236;SDS011;18726;44.732;10.550;2023-04-29T01:59:40;10.35;;;8.65;;
32236;SDS011;18726;44.732;10.550;2023-04-29T02:02:54;15.45;;;10.65;;
32236;SDS011;18726;44.732;10.550;2023-04-29T02:09:10;10.82;;;9.60;;
32236;SDS011;18726;44.732;10.550;2023-04-29T02:12:14;12.18;;;9.82;;
32236;SDS011;18726;44.732;10.550;2023-04-29T02:15:19;18.20;;;10.10;;
32236;SDS011;18726;44.732;10.550;2023-04-29T02:18:23;17.20;;;11.15;;
32236;SDS011;18726;44.732;10.550;2023-04-29T02:21:27;12.52;;;10.32;;
32236;SDS011;18726;44.732;10.550;2023-04-29T02:24:31;11.27;;;10.27;;
32236;SDS011;18726;44.732;10.550;2023-04-29T02:27:34;12.02;;;9.30;;
32236;SDS011;18726;44.732;10.550;2023-04-29T02:30:38;16.85;;;10.65;;
32236;SDS011;18726;44.732;10.550;2023-04-29T02:33:42;12.27;;;9.85;;
32236;SDS011;18726;44.732;10.550;2023-04-29T02:36:45;10.60;;;9.25;;
32236;SDS011;18726;44.732;10.550;2023-04-29T02:39:49;12.65;;;9.80;;
32236;SDS011;18726;44.732;10.550;2023-04-29T02:42:53;13.02;;;10.07;;
32236;SDS011;18726;44.732;10.550;2023-04-29T02:45:56;11.15;;;8.65;;
32236;SDS011;18726;44.732;10.550;2023-04-29T02:49:02;14.05;;;9.27;;
32236;SDS011;18726;44.732;10.550;2023-04-29T02:52:06;11.43;;;8.10;;
32236;SDS011;18726;44.732;10.550;2023-04-29T02:55:11;8.73;;;7.72;;
32236;SDS011;18726;44.732;10.550;2023-04-29T02:58:14;8.35;;;7.55;;
32236;SDS011;18726;44.732;10.550;2023-04-29T03:01:18;7.55;;;6.85;;
32236;SDS011;18726;44.732;10.550;2023-04-29T03:04:22;8.35;;;6.78;;
32236;SDS011;18726;44.732;10.550;2023-04-29T03:07:26;9.52;;;7.70;;
32236;SDS011;18726;44.732;10.550;2023-04-29T03:10:30;13.57;;;8.60;;
32236;SDS011;18726;44.732;10.550;2023-04-29T03:13:34;13.25;;;8.13;;
32236;SDS011;18726;44.732;10.550;2023-04-29T03:16:38;10.55;;;7.38;;
32236;SDS011;18726;44.732;10.550;2023-04-29T03:19:41;10.23;;;9.18;;
32236;SDS011;18726;44.732;10.550;2023-04-29T03:22:45;12.70;;;9.43;;
32236;SDS011;18726;44.732;10.550;2023-04-29T03:25:49;10.40;;;8.63;;
32236;SDS011;18726;44.732;10.550;2023-04-29T03:28:55;10.93;;;8.27;;
32236;SDS011;18726;44.732;10.550;2023-04-29T03:32:01;13.93;;;9.00;;
32236;SDS011;18726;44.732;10.550;2023-04-29T03:35:05;9.85;;;8.93;;
32236;SDS011;18726;44.732;10.550;2023-04-29T03:38:14;10.43;;;9.38;;
32236;SDS011;18726;44.732;10.550;2023-04-29T03:41:17;14.32;;;9.90;;
32236;SDS011;18726;44.732;10.550;2023-04-29T03:44:22;10.13;;;9.05;;
32236;SDS011;18726;44.732;10.550;2023-04-29T03:47:26;16.73;;;10.00;;
32236;SDS011;18726;44.732;10.550;2023-04-29T03:50:29;9.95;;;6.97;;
32236;SDS011;18726;44.732;10.550;2023-04-29T03:53:33;8.82;;;7.82;;
32236;SDS011;18726;44.732;10.550;2023-04-29T03:56:40;13.75;;;9.40;;
32236;SDS011;18726;44.732;10.550;2023-04-29T03:59:45;12.80;;;10.25;;
32236;SDS011;18726;44.732;10.550;2023-04-29T04:02:52;11.43;;;10.25;;
32236;SDS011;18726;44.732;10.550;2023-04-29T04:05:56;10.45;;;9.40;;
32236;SDS011;18726;44.732;10.550;2023-04-29T04:09:00;9.32;;;7.30;;
32236;SDS011;18726;44.732;10.550;2023-04-29T04:12:06;8.50;;;7.70;;
32236;SDS011;18726;44.732;10.550;2023-04-29T04:15:10;8.38;;;7.47;;
32236;SDS011;18726;44.732;10.550;2023-04-29T04:18:14;7.53;;;6.88;;
32236;SDS011;18726;44.732;10.550;2023-04-29T04:21:17;11.50;;;7.75;;
32236;SDS011;18726;44.732;10.550;2023-04-29T04:24:28;8.93;;;8.02;;
32236;SDS011;18726;44.732;10.550;2023-04-29T04:27:32;10.57;;;8.25;;
32236;SDS011;18726;44.732;10.550;2023-04-29T04:30:39;8.13;;;7.32;;
32236;SDS011;18726;44.732;10.550;2023-04-29T04:33:43;10.00;;;8.10;;
32236;SDS011;18726;44.732;10.550;2023-04-29T04:36:47;11.82;;;7.18;;
32236;SDS011;18726;44.732;10.550;2023-04-29T04:39:51;8.40;;;7.32;;
32236;SDS011;18726;44.732;10.550;2023-04-29T04:42:55;7.93;;;7.15;;
32236;SDS011;18726;44.732;10.550;2023-04-29T04:45:59;7.43;;;6.70;;
32236;SDS011;18726;44.732;10.550;2023-04-29T04:49:03;7.50;;;6.70;;
32236;SDS011;18726;44.732;10.550;2023-04-29T04:52:10;8.85;;;7.45;;
32236;SDS011;18726;44.732;10.550;2023-04-29T04:55:14;6.40;;;5.75;;
32236;SDS011;18726;44.732;10.550;2023-04-29T04:58:21;9.35;;;6.95;;
32236;SDS011;18726;44.732;10.550;2023-04-29T05:01:24;7.63;;;7.03;;
32236;SDS011;18726;44.732;10.550;2023-04-29T05:04:28;11.73;;;7.10;;
32236;SDS011;18726;44.732;10.550;2023-04-29T05:07:32;8.25;;;7.50;;
32236;SDS011;18726;44.732;10.550;2023-04-29T05:10:41;11.65;;;6.65;;
32236;SDS011;18726;44.732;10.550;2023-04-29T05:13:46;7.28;;;6.57;;
32236;SDS011;18726;44.732;10.550;2023-04-29T05:16:50;7.25;;;6.55;;
32236;SDS011;18726;44.732;10.550;2023-04-29T05:19:55;8.13;;;7.32;;
32236;SDS011;18726;44.732;10.550;2023-04-29T05:22:59;9.63;;;7.72;;
32236;SDS011;18726;44.732;10.550;2023-04-29T05:26:03;12.18;;;8.60;;
32236;SDS011;18726;44.732;10.550;2023-04-29T05:29:07;9.15;;;8.35;;
32236;SDS011;18726;44.732;10.550;2023-04-29T05:32:20;11.52;;;9.38;;
32236;SDS011;18726;44.732;10.550;2023-04-29T05:35:24;10.38;;;7.85;;
32236;SDS011;18726;44.732;10.550;2023-04-29T05:38:28;9.15;;;8.23;;
32236;SDS011;18726;44.732;10.550;2023-04-29T05:41:39;8.67;;;7.90;;
32236;SDS011;18726;44.732;10.550;2023-04-29T05:44:54;9.50;;;7.88;;
32236;SDS011;18726;44.732;10.550;2023-04-29T05:47:58;6.90;;;6.28;;
32236;SDS011;18726;44.732;10.550;2023-04-29T05:51:01;10.82;;;7.43;;
32236;SDS011;18726;44.732;10.550;2023-04-29T05:54:06;13.23;;;8.25;;
32236;SDS011;18726;44.732;10.550;2023-04-29T05:57:09;13.32;;;8.45;;
32236;SDS011;18726;44.732;10.550;2023-04-29T06:00:13;11.77;;;8.63;;
32236;SDS011;18726;44.732;10.550;2023-04-29T06:03:17;8.65;;;7.80;;
32236;SDS011;18726;44.732;10.550;2023-04-29T06:06:21;8.18;;;7.07;;
32236;SDS011;18726;44.732;10.550;2023-04-29T06:09:45;8.55;;;7.22;;
32236;SDS011;18726;44.732;10.550;2023-04-29T06:12:49;8.77;;;6.47;;
32236;SDS011;18726;44.732;10.550;2023-04-29T06:15:54;11.00;;;8.43;;
32236;SDS011;18726;44.732;10.550;2023-04-29T06:18:57;9.18;;;8.27;;
32236;SDS011;18726;44.732;10.550;2023-04-29T06:22:02;10.00;;;7.53;;
32236;SDS011;18726;44.732;10.550;2023-04-29T06:25:07;11.82;;;8.90;;
32236;SDS011;18726;44.732;10.550;2023-04-29T06:28:25;10.48;;;8.68;;
32236;SDS011;18726;44.732;10.550;2023-04-29T06:31:28;15.15;;;8.95;;
32236;SDS011;18726;44.732;10.550;2023-04-29T06:34:36;9.55;;;8.55;;
32236;SDS011;18726;44.732;10.550;2023-04-29T06:38:02;14.50;;;8.85;;
32236;SDS011;18726;44.732;10.550;2023-04-29T06:41:24;12.98;;;8.63;;
32236;SDS011;18726;44.732;10.550;2023-04-29T06:44:42;13.63;;;8.05;;
32236;SDS011;18726;44.732;10.550;2023-04-29T06:48:01;8.07;;;7.32;;
32236;SDS011;18726;44.732;10.550;2023-04-29T06:51:24;9.18;;;7.38;;
32236;SDS011;18726;44.732;10.550;2023-04-29T06:54:27;9.70;;;7.75;;
32236;SDS011;18726;44.732;10.550;2023-04-29T06:57:31;10.43;;;7.72;;
32236;SDS011;18726;44.732;10.550;2023-04-29T07:00:36;10.93;;;7.28;;
32236;SDS011;18726;44.732;10.550;2023-04-29T07:03:39;13.02;;;8.07;;
32236;SDS011;18726;44.732;10.550;2023-04-29T07:06:43;9.32;;;7.88;;
32236;SDS011;18726;44.732;10.550;2023-04-29T07:09:49;9.45;;;7.43;;
32236;SDS011;18726;44.732;10.550;2023-04-29T07:12:55;11.15;;;7.10;;
32236;SDS011;18726;44.732;10.550;2023-04-29T07:15:59;13.18;;;7.07;;
32236;SDS011;18726;44.732;10.550;2023-04-29T07:19:03;8.70;;;7.80;;
32236;SDS011;18726;44.732;10.550;2023-04-29T07:22:07;11.25;;;7.80;;
32236;SDS011;18726;44.732;10.550;2023-04-29T07:25:10;11.43;;;7.70;;
32236;SDS011;18726;44.732;10.550;2023-04-29T07:28:14;12.52;;;8.48;;
32236;SDS011;18726;44.732;10.550;2023-04-29T07:31:18;11.45;;;8.75;;
32236;SDS011;18726;44.732;10.550;2023-04-29T07:34:22;11.25;;;9.82;;
32236;SDS011;18726;44.732;10.550;2023-04-29T07:37:26;12.63;;;9.00;;
32236;SDS011;18726;44.732;10.550;2023-04-29T07:40:30;11.82;;;9.95;;
32236;SDS011;18726;44.732;10.550;2023-04-29T07:43:34;14.10;;;9.93;;
32236;SDS011;18726;44.732;10.550;2023-04-29T07:46:38;13.77;;;11.88;;
32236;SDS011;18726;44.732;10.550;2023-04-29T07:49:42;18.15;;;12.68;;
32236;SDS011;18726;44.732;10.550;2023-04-29T07:52:46;13.13;;;11.75;;
32236;SDS011;18726;44.732;10.550;2023-04-29T07:55:52;17.42;;;12.45;;
32236;SDS011;18726;44.732;10.550;2023-04-29T07:58:58;18.27;;;12.98;;
32236;SDS011;18726;44.732;10.550;2023-04-29T08:02:03;15.32;;;11.73;;
32236;SDS011;18726;44.732;10.550;2023-04-29T08:05:07;21.10;;;12.68;;
32236;SDS011;18726;44.732;10.550;2023-04-29T08:08:11;12.68;;;11.38;;
32236;SDS011;18726;44.732;10.550;2023-04-29T08:11:15;15.57;;;12.15;;
32236;SDS011;18726;44.732;10.550;2023-04-29T08:14:23;15.93;;;13.10;;
32236;SDS011;18726;44.732;10.550;2023-04-29T08:17:26;21.55;;;14.40;;
32236;SDS011;18726;44.732;10.550;2023-04-29T08:20:30;13.93;;;12.15;;
32236;SDS011;18726;44.732;10.550;2023-04-29T08:23:34;16.48;;;11.88;;
32236;SDS011;18726;44.732;10.550;2023-04-29T08:26:40;18.48;;;11.98;;
32236;SDS011;18726;44.732;10.550;2023-04-29T08:29:44;15.35;;;12.45;;
32236;SDS011;18726;44.732;10.550;2023-04-29T08:32:48;20.48;;;15.73;;
32236;SDS011;18726;44.732;10.550;2023-04-29T08:35:59;18.73;;;14.10;;
32236;SDS011;18726;44.732;10.550;2023-04-29T08:39:05;16.13;;;13.63;;
32236;SDS011;18726;44.732;10.550;2023-04-29T08:42:09;16.83;;;14.85;;
32236;SDS011;18726;44.732;10.550;2023-04-29T08:45:14;16.88;;;14.88;;
32236;SDS011;18726;44.732;10.550;2023-04-29T08:48:19;20.40;;;15.65;;
32236;SDS011;18726;44.732;10.550;2023-04-29T08:51:24;22.67;;;16.10;;
32236;SDS011;18726;44.732;10.550;2023-04-29T08:54:27;18.05;;;14.82;;
32236;SDS011;18726;44.732;10.550;2023-04-29T08:57:32;17.92;;;15.18;;
32236;SDS011;18726;44.732;10.550;2023-04-29T09:00:42;17.13;;;13.40;;
32236;SDS011;18726;44.732;10.550;2023-04-29T09:03:53;13.88;;;12.27;;
32236;SDS011;18726;44.732;10.550;2023-04-29T09:07:07;17.70;;;15.27;;
32236;SDS011;18726;44.732;10.550;2023-04-29T09:10:13;14.05;;;12.63;;
32236;SDS011;18726;44.732;10.550;2023-04-29T09:13:25;15.35;;;13.57;;
32236;SDS011;18726;44.732;10.550;2023-04-29T09:16:32;17.17;;;12.98;;
32236;SDS011;18726;44.732;10.550;2023-04-29T09:19:37;17.90;;;12.02;;
32236;SDS011;18726;44.732;10.550;2023-04-29T09:25:55;13.65;;;12.13;;
32236;SDS011;18726;44.732;10.550;2023-04-29T09:29:12;18.15;;;12.95;;
32236;SDS011;18726;44.732;10.550;2023-04-29T09:32:20;15.50;;;12.45;;
32236;SDS011;18726;44.732;10.550;2023-04-29T09:35:25;16.45;;;13.43;;
32236;SDS011;18726;44.732;10.550;2023-04-29T09:38:30;18.15;;;14.68;;
32236;SDS011;18726;44.732;10.550;2023-04-29T09:41:33;17.25;;;14.27;;
32236;SDS011;18726;44.732;10.550;2023-04-29T09:44:40;17.13;;;13.43;;
32236;SDS011;18726;44.732;10.550;2023-04-29T09:47:44;17.73;;;15.18;;
32236;SDS011;18726;44.732;10.550;2023-04-29T09:50:58;16.88;;;14.95;;
32236;SDS011;18726;44.732;10.550;2023-04-29T09:54:18;20.80;;;17.02;;
32236;SDS011;18726;44.732;10.550;2023-04-29T09:57:23;26.55;;;19.35;;
32236;SDS011;18726;44.732;10.550;2023-04-29T10:00:42;20.70;;;17.58;;
32236;SDS011;18726;44.732;10.550;2023-04-29T10:03:46;24.48;;;18.95;;
32236;SDS011;18726;44.732;10.550;2023-04-29T10:06:53;20.25;;;17.27;;
32236;SDS011;18726;44.732;10.550;2023-04-29T10:09:57;22.00;;;17.67;;
32236;SDS011;18726;44.732;10.550;2023-04-29T10:13:00;19.67;;;16.77;;
32236;SDS011;18726;44.732;10.550;2023-04-29T10:16:10;26.33;;;22.02;;
32236;SDS011;18726;44.732;10.550;2023-04-29T10:19:33;25.50;;;22.17;;
32236;SDS011;18726;44.732;10.550;2023-04-29T10:25:51;29.75;;;23.38;;
32236;SDS011;18726;44.732;10.550;2023-04-29T10:28:58;25.10;;;20.63;;
32236;SDS011;18726;44.732;10.550;2023-04-29T10:32:03;25.35;;;20.08;;
32236;SDS011;18726;44.732;10.550;2023-04-29T10:35:12;27.17;;;22.90;;
32236;SDS011;18726;44.732;10.550;2023-04-29T10:38:50;24.08;;;19.77;;
32236;SDS011;18726;44.732;10.550;2023-04-29T10:41:48;24.77;;;22.15;;
32236;SDS011;18726;44.732;10.550;2023-04-29T10:48:20;24.52;;;20.17;;
32236;SDS011;18726;44.732;10.550;2023-04-29T10:51:30;25.05;;;21.17;;
32236;SDS011;18726;44.732;10.550;2023-04-29T10:54:35;21.48;;;17.08;;
32236;SDS011;18726;44.732;10.550;2023-04-29T10:57:39;18.05;;;15.32;;
32236;SDS011;18726;44.732;10.550;2023-04-29T11:00:43;14.80;;;11.48;;
32236;SDS011;18726;44.732;10.550;2023-04-29T11:03:48;17.50;;;14.15;;
32236;SDS011;18726;44.732;10.550;2023-04-29T11:06:53;18.17;;;14.70;;
32236;SDS011;18726;44.732;10.550;2023-04-29T11:09:58;18.55;;;14.90;;
32236;SDS011;18726;44.732;10.550;2023-04-29T11:13:20;15.18;;;13.13;;
32236;SDS011;18726;44.732;10.550;2023-04-29T11:16:30;19.30;;;13.45;;
32236;SDS011;18726;44.732;10.550;2023-04-29T11:19:35;16.88;;;14.40;;
32236;SDS011;18726;44.732;10.550;2023-04-29T11:22:49;16.13;;;13.95;;
32236;SDS011;18726;44.732;10.550;2023-04-29T11:25:54;17.80;;;13.13;;
32236;SDS011;18726;44.732;10.550;2023-04-29T11:28:58;19.58;;;13.60;;
32236;SDS011;18726;44.732;10.550;2023-04-29T11:32:02;20.30;;;13.15;;
32236;SDS011;18726;44.732;10.550;2023-04-29T11:35:07;16.83;;;14.02;;
32236;SDS011;18726;44.732;10.550;2023-04-29T11:38:11;16.88;;;14.98;;
32236;SDS011;18726;44.732;10.550;2023-04-29T11:41:16;17.17;;;14.98;;
32236;SDS011;18726;44.732;10.550;2023-04-29T11:44:20;18.70;;;16.80;;
32236;SDS011;18726;44.732;10.550;2023-04-29T11:47:26;22.00;;;17.95;;
32236;SDS011;18726;44.732;10.550;2023-04-29T11:50:31;20.38;;;18.35;;
32236;SDS011;18726;44.732;10.550;2023-04-29T11:53:35;21.58;;;19.27;;
32236;SDS011;18726;44.732;10.550;2023-04-29T11:56:40;25.05;;;22.52;;
32236;SDS011;18726;44.732;10.550;2023-04-29T11:59:44;22.45;;;20.17;;
32236;SDS011;18726;44.732;10.550;2023-04-29T12:02:49;25.50;;;22.20;;
32236;SDS011;18726;44.732;10.550;2023-04-29T12:05:53;25.95;;;22.73;;
32236;SDS011;18726;44.732;10.550;2023-04-29T12:08:58;23.63;;;19.77;;
32236;SDS011;18726;44.732;10.550;2023-04-29T12:12:02;27.30;;;23.23;;
32236;SDS011;18726;44.732;10.550;2023-04-29T12:15:07;26.70;;;23.92;;
32236;SDS011;18726;44.732;10.550;2023-04-29T12:18:12;29.25;;;24.25;;
32236;SDS011;18726;44.732;10.550;2023-04-29T12:21:16;34.47;;;24.58;;
32236;SDS011;18726;44.732;10.550;2023-04-29T12:24:20;26.25;;;23.65;;
32236;SDS011;18726;44.732;10.550;2023-04-29T12:27:24;29.85;;;26.95;;
32236;SDS011;18726;44.732;10.550;2023-04-29T12:30:29;29.35;;;26.27;;
32236;SDS011;18726;44.732;10.550;2023-04-29T12:33:33;29.25;;;26.15;;
32236;SDS011;18726;44.732;10.550;2023-04-29T12:36:36;30.50;;;23.55;;
32236;SDS011;18726;44.732;10.550;2023-04-29T12:39:41;26.25;;;23.40;;
32236;SDS011;18726;44.732;10.550;2023-04-29T12:42:45;33.83;;;23.58;;
32236;SDS011;18726;44.732;10.550;2023-04-29T12:45:49;27.08;;;23.98;;
32236;SDS011;18726;44.732;10.550;2023-04-29T12:48:56;27.52;;;24.55;;
32236;SDS011;18726;44.732;10.550;2023-04-29T12:52:00;34.05;;;26.98;;
32236;SDS011;18726;44.732;10.550;2023-04-29T12:55:11;26.50;;;23.83;;
32236;SDS011;18726;44.732;10.550;2023-04-29T12:58:15;28.73;;;23.02;;
32236;SDS011;18726;44.732;10.550;2023-04-29T13:01:18;32.55;;;25.80;;
32236;SDS011;18726;44.732;10.550;2023-04-29T13:04:25;27.65;;;23.92;;
32236;SDS011;18726;44.732;10.550;2023-04-29T13:07:29;29.33;;;25.38;;
32236;SDS011;18726;44.732;10.550;2023-04-29T13:10:33;28.90;;;25.77;;
32236;SDS011;18726;44.732;10.550;2023-04-29T13:13:37;26.63;;;23.67;;
32236;SDS011;18726;44.732;10.550;2023-04-29T13:16:41;32.22;;;27.08;;
32236;SDS011;18726;44.732;10.550;2023-04-29T13:19:45;28.88;;;25.90;;
32236;SDS011;18726;44.732;10.550;2023-04-29T13:22:49;28.65;;;24.00;;
32236;SDS011;18726;44.732;10.550;2023-04-29T13:25:54;26.67;;;21.80;;
32236;SDS011;18726;44.732;10.550;2023-04-29T13:28:58;27.65;;;24.80;;
32236;SDS011;18726;44.732;10.550;2023-04-29T13:32:03;27.63;;;23.95;;
32236;SDS011;18726;44.732;10.550;2023-04-29T13:35:07;28.35;;;24.20;;
32236;SDS011;18726;44.732;10.550;2023-04-29T13:38:11;27.70;;;23.02;;
32236;SDS011;18726;44.732;10.550;2023-04-29T13:41:15;27.13;;;20.48;;
32236;SDS011;18726;44.732;10.550;2023-04-29T13:44:19;28.00;;;21.80;;
32236;SDS011;18726;44.732;10.550;2023-04-29T13:47:23;27.13;;;21.02;;
32236;SDS011;18726;44.732;10.550;2023-04-29T13:50:27;19.65;;;15.63;;
32236;SDS011;18726;44.732;10.550;2023-04-29T13:53:31;16.85;;;13.70;;
32236;SDS011;18726;44.732;10.550;2023-04-29T13:56:34;23.65;;;18.80;;
32236;SDS011;18726;44.732;10.550;2023-04-29T13:59:38;24.85;;;20.40;;
32236;SDS011;18726;44.732;10.550;2023-04-29T14:02:41;24.90;;;19.27;;
32236;SDS011;18726;44.732;10.550;2023-04-29T14:05:45;23.75;;;21.35;;
32236;SDS011;18726;44.732;10.550;2023-04-29T14:08:50;23.55;;;17.55;;
32236;SDS011;18726;44.732;10.550;2023-04-29T14:11:55;24.33;;;18.92;;
32236;SDS011;18726;44.732;10.550;2023-04-29T14:14:59;21.48;;;17.23;;
32236;SDS011;18726;44.732;10.550;2023-04-29T14:18:03;20.98;;;17.27;;
32236;SDS011;18726;44.732;10.550;2023-04-29T14:21:07;19.35;;;17.40;;
32236;SDS011;18726;44.732;10.550;2023-04-29T14:24:11;24.55;;;21.88;;
32236;SDS011;18726;44.732;10.550;2023-04-29T14:27:14;26.40;;;22.58;;
32236;SDS011;18726;44.732;10.550;2023-04-29T14:30:18;30.33;;;24.38;;
32236;SDS011;18726;44.732;10.550;2023-04-29T14:33:21;24.58;;;20.88;;
32236;SDS011;18726;44.732;10.550;2023-04-29T14:36:25;24.90;;;20.33;;
32236;SDS011;18726;44.732;10.550;2023-04-29T14:39:29;22.23;;;19.83;;
32236;SDS011;18726;44.732;10.550;2023-04-29T14:42:32;21.67;;;17.33;;
32236;SDS011;18726;44.732;10.550;2023-04-29T14:45:36;19.23;;;16.80;;
32236;SDS011;18726;44.732;10.550;2023-04-29T14:48:39;17.58;;;15.20;;
32236;SDS011;18726;44.732;10.550;2023-04-29T14:51:43;19.88;;;15.48;;
32236;SDS011;18726;44.732;10.550;2023-04-29T14:54:46;16.52;;;13.75;;
32236;SDS011;18726;44.732;10.550;2023-04-29T14:57:50;21.33;;;18.60;;
32236;SDS011;18726;44.732;10.550;2023-04-29T15:00:54;19.55;;;16.70;;
32236;SDS011;18726;44.732;10.550;2023-04-29T15:03:58;20.65;;;16.52;;
32236;SDS011;18726;44.732;10.550;2023-04-29T15:07:01;19.02;;;17.15;;
32236;SDS011;18726;44.732;10.550;2023-04-29T15:10:06;19.65;;;17.75;;
32236;SDS011;18726;44.732;10.550;2023-04-29T15:13:11;22.45;;;18.25;;
32236;SDS011;18726;44.732;10.550;2023-04-29T15:16:15;24.92;;;20.98;;
32236;SDS011;18726;44.732;10.550;2023-04-29T15:19:19;24.17;;;20.45;;
32236;SDS011;18726;44.732;10.550;2023-04-29T15:22:22;24.85;;;20.02;;
32236;SDS011;18726;44.732;10.550;2023-04-29T15:25:26;24.85;;;19.60;;
32236;SDS011;18726;44.732;10.550;2023-04-29T15:28:30;22.38;;;19.98;;
32236;SDS011;18726;44.732;10.550;2023-04-29T15:31:34;24.15;;;19.52;;
32236;SDS011;18726;44.732;10.550;2023-04-29T15:34:38;21.17;;;19.08;;
32236;SDS011;18726;44.732;10.550;2023-04-29T15:37:41;22.92;;;19.15;;
32236;SDS011;18726;44.732;10.550;2023-04-29T15:40:45;26.70;;;19.08;;
32236;SDS011;18726;44.732;10.550;2023-04-29T15:43:48;23.95;;;18.70;;
32236;SDS011;18726;44.732;10.550;2023-04-29T15:46:52;20.08;;;17.70;;
32236;SDS011;18726;44.732;10.550;2023-04-29T15:49:55;29.40;;;18.95;;
32236;SDS011;18726;44.732;10.550;2023-04-29T15:52:59;21.55;;;19.42;;
32236;SDS011;18726;44.732;10.550;2023-04-29T15:56:03;20.55;;;18.48;;
32236;SDS011;18726;44.732;10.550;2023-04-29T15:59:06;25.60;;;18.08;;
32236;SDS011;18726;44.732;10.550;2023-04-29T16:02:10;22.08;;;17.63;;
32236;SDS011;18726;44.732;10.550;2023-04-29T16:05:14;20.80;;;17.98;;
32236;SDS011;18726;44.732;10.550;2023-04-29T16:08:18;21.15;;;18.65;;
32236;SDS011;18726;44.732;10.550;2023-04-29T16:11:21;27.30;;;21.15;;
32236;SDS011;18726;44.732;10.550;2023-04-29T16:14:25;27.52;;;20.23;;
32236;SDS011;18726;44.732;10.550;2023-04-29T16:17:30;23.70;;;20.77;;
32236;SDS011;18726;44.732;10.550;2023-04-29T16:20:34;26.85;;;22.63;;
32236;SDS011;18726;44.732;10.550;2023-04-29T16:23:38;25.92;;;22.13;;
32236;SDS011;18726;44.732;10.550;2023-04-29T16:26:41;26.02;;;23.23;;
32236;SDS011;18726;44.732;10.550;2023-04-29T16:29:45;27.95;;;23.35;;
32236;SDS011;18726;44.732;10.550;2023-04-29T16:32:49;25.48;;;22.10;;
32236;SDS011;18726;44.732;10.550;2023-04-29T16:35:55;25.48;;;21.15;;
32236;SDS011;18726;44.732;10.550;2023-04-29T16:39:00;31.95;;;23.30;;
32236;SDS011;18726;44.732;10.550;2023-04-29T16:42:06;25.23;;;22.48;;
32236;SDS011;18726;44.732;10.550;2023-04-29T16:45:10;31.35;;;22.75;;
32236;SDS011;18726;44.732;10.550;2023-04-29T16:48:15;25.63;;;22.92;;
32236;SDS011;18726;44.732;10.550;2023-04-29T16:51:19;28.23;;;23.27;;
32236;SDS011;18726;44.732;10.550;2023-04-29T16:54:22;25.88;;;22.67;;
32236;SDS011;18726;44.732;10.550;2023-04-29T16:57:26;26.13;;;23.02;;
32236;SDS011;18726;44.732;10.550;2023-04-29T17:00:30;27.13;;;23.00;;
32236;SDS011;18726;44.732;10.550;2023-04-29T17:03:34;26.13;;;21.50;;
32236;SDS011;18726;44.732;10.550;2023-04-29T17:06:38;25.38;;;22.20;;
32236;SDS011;18726;44.732;10.550;2023-04-29T17:09:42;28.40;;;22.77;;
32236;SDS011;18726;44.732;10.550;2023-04-29T17:12:46;24.60;;;21.55;;
32236;SDS011;18726;44.732;10.550;2023-04-29T17:15:50;30.77;;;21.75;;
32236;SDS011;18726;44.732;10.550;2023-04-29T17:18:54;29.45;;;23.30;;
32236;SDS011;18726;44.732;10.550;2023-04-29T17:21:58;26.25;;;22.38;;
32236;SDS011;18726;44.732;10.550;2023-04-29T17:25:01;25.40;;;22.52;;
32236;SDS011;18726;44.732;10.550;2023-04-29T17:28:06;26.75;;;23.55;;
32236;SDS011;18726;44.732;10.550;2023-04-29T17:31:10;28.05;;;24.13;;
32236;SDS011;18726;44.732;10.550;2023-04-29T17:34:13;30.00;;;21.65;;
32236;SDS011;18726;44.732;10.550;2023-04-29T17:37:20;27.00;;;21.25;;
32236;SDS011;18726;44.732;10.550;2023-04-29T17:40:27;26.08;;;23.45;;
32236;SDS011;18726;44.732;10.550;2023-04-29T17:43:30;33.17;;;23.85;;
32236;SDS011;18726;44.732;10.550;2023-04-29T17:46:37;25.88;;;23.27;;
32236;SDS011;18726;44.732;10.550;2023-04-29T17:49:42;26.52;;;22.20;;
32236;SDS011;18726;44.732;10.550;2023-04-29T17:52:46;26.52;;;23.65;;
32236;SDS011;18726;44.732;10.550;2023-04-29T17:55:50;28.73;;;24.23;;
32236;SDS011;18726;44.732;10.550;2023-04-29T17:58:53;25.35;;;22.73;;
32236;SDS011;18726;44.732;10.550;2023-04-29T18:01:57;31.42;;;23.20;;
32236;SDS011;18726;44.732;10.550;2023-04-29T18:05:02;26.00;;;23.17;;
32236;SDS011;18726;44.732;10.550;2023-04-29T18:08:06;26.52;;;23.20;;
32236;SDS011;18726;44.732;10.550;2023-04-29T18:11:09;30.13;;;24.35;;
32236;SDS011;18726;44.732;10.550;2023-04-29T18:14:14;26.98;;;24.15;;
32236;SDS011;18726;44.732;10.550;2023-04-29T18:17:19;28.55;;;25.33;;
32236;SDS011;18726;44.732;10.550;2023-04-29T18:20:23;32.28;;;22.98;;